Terminal Aerodrome Forecast
Issued by NWS

Home | Current Version | Previous Version | Text Only | Print | Product List | Glossary On
Versions: 1 2 3 4 5 6 7 8 9 10 11 12
549
FTUS44 KLIX 222335
TAFGPT
TAF
KGPT 222335Z 2300/2324 VRB03KT P6SM FEW070 SCT250
     FM231400 07004KT P6SM FEW030
     FM231900 12006KT P6SM SCT050=

USA.gov is the U.S. government's official web portal to all federal, state and local government web resources and services.